Ans, Belgium
Current Conditions -  °F | °C
As of 7:50 PM on Friday 28 Nov 2014 (Local Time) from EBLG Reporting Station
Haze Haze  
Wind Chill:   Ceiling: Unl
Heat Index:   Visibility: 3mi
Dew Point:   Wind: 6mph
Humidity: 93%   Direction: 40°NE
Pressure: 29.77"   Gusts: NA
Location:  50.69°N, 5.51°E
Report Text: EBLG 281850Z 04005KT 5000 BR NSC 05/04 Q1008 NOSIG
Loading
Personal Weather Stations






























Interactive Weather Map New forecast layout! Learn more

10-Day Weather Forecast

Advertisements
Track Severe Weather on mobile